sensor_id;sensor_type;location;lat;lon;timestamp;temperature;humidity
4364;DHT22;15337;48.202;12.770;2022-09-29T00:01:05;8.80;99.90
4364;DHT22;15337;48.202;12.770;2022-09-29T00:03:33;8.70;99.90
4364;DHT22;15337;48.202;12.770;2022-09-29T00:05:59;8.70;99.90
4364;DHT22;15337;48.202;12.770;2022-09-29T00:08:30;8.70;99.90
4364;DHT22;15337;48.202;12.770;2022-09-29T00:10:57;8.70;99.90
4364;DHT22;15337;48.202;12.770;2022-09-29T00:13:24;8.70;99.90
4364;DHT22;15337;48.202;12.770;2022-09-29T00:15:55;8.70;99.90
4364;DHT22;15337;48.202;12.770;2022-09-29T00:18:22;8.80;99.90
4364;DHT22;15337;48.202;12.770;2022-09-29T00:21:00;8.70;99.90
4364;DHT22;15337;48.202;12.770;2022-09-29T00:23:29;8.70;99.90
4364;DHT22;15337;48.202;12.770;2022-09-29T00:26:01;8.70;99.90
4364;DHT22;15337;48.202;12.770;2022-09-29T00:28:28;8.70;99.90
4364;DHT22;15337;48.202;12.770;2022-09-29T00:30:57;8.70;99.90
4364;DHT22;15337;48.202;12.770;2022-09-29T00:33:25;8.70;99.90
4364;DHT22;15337;48.202;12.770;2022-09-29T00:35:59;8.70;99.90
4364;DHT22;15337;48.202;12.770;2022-09-29T00:38:29;8.70;99.90
4364;DHT22;15337;48.202;12.770;2022-09-29T00:40:56;8.70;99.90
4364;DHT22;15337;48.202;12.770;2022-09-29T00:46:11;8.60;99.90
4364;DHT22;15337;48.202;12.770;2022-09-29T00:48:39;8.60;99.90
4364;DHT22;15337;48.202;12.770;2022-09-29T00:51:07;8.60;99.90
4364;DHT22;15337;48.202;12.770;2022-09-29T00:53:35;8.60;99.90
4364;DHT22;15337;48.202;12.770;2022-09-29T00:56:04;8.60;99.90
4364;DHT22;15337;48.202;12.770;2022-09-29T00:58:35;8.60;99.90
4364;DHT22;15337;48.202;12.770;2022-09-29T01:01:04;8.60;99.90
4364;DHT22;15337;48.202;12.770;2022-09-29T01:03:33;8.60;99.90
4364;DHT22;15337;48.202;12.770;2022-09-29T01:06:05;8.60;99.90
4364;DHT22;15337;48.202;12.770;2022-09-29T01:08:40;8.60;99.90
4364;DHT22;15337;48.202;12.770;2022-09-29T01:11:10;8.50;99.90
4364;DHT22;15337;48.202;12.770;2022-09-29T01:13:38;8.50;99.90
4364;DHT22;15337;48.202;12.770;2022-09-29T01:16:07;8.40;99.90
4364;DHT22;15337;48.202;12.770;2022-09-29T01:18:34;8.40;99.90
4364;DHT22;15337;48.202;12.770;2022-09-29T01:21:10;8.40;99.90
4364;DHT22;15337;48.202;12.770;2022-09-29T01:24:18;8.30;99.90
4364;DHT22;15337;48.202;12.770;2022-09-29T01:27:15;8.20;99.90
4364;DHT22;15337;48.202;12.770;2022-09-29T01:33:16;8.10;99.90
4364;DHT22;15337;48.202;12.770;2022-09-29T01:35:51;8.00;99.90
4364;DHT22;15337;48.202;12.770;2022-09-29T01:38:34;7.90;99.90
4364;DHT22;15337;48.202;12.770;2022-09-29T01:41:11;7.90;99.90
4364;DHT22;15337;48.202;12.770;2022-09-29T01:43:45;7.80;99.90
4364;DHT22;15337;48.202;12.770;2022-09-29T01:46:19;7.80;99.90
4364;DHT22;15337;48.202;12.770;2022-09-29T01:48:51;7.80;99.90
4364;DHT22;15337;48.202;12.770;2022-09-29T01:51:23;7.70;99.90
4364;DHT22;15337;48.202;12.770;2022-09-29T01:53:53;7.70;99.90
4364;DHT22;15337;48.202;12.770;2022-09-29T01:56:25;7.70;99.90
4364;DHT22;15337;48.202;12.770;2022-09-29T01:58:56;7.60;99.90
4364;DHT22;15337;48.202;12.770;2022-09-29T02:01:30;7.60;99.90
4364;DHT22;15337;48.202;12.770;2022-09-29T02:04:02;7.50;99.90
4364;DHT22;15337;48.202;12.770;2022-09-29T02:06:34;7.50;99.90
4364;DHT22;15337;48.202;12.770;2022-09-29T02:09:10;7.50;99.90
4364;DHT22;15337;48.202;12.770;2022-09-29T02:11:40;7.40;99.90
4364;DHT22;15337;48.202;12.770;2022-09-29T02:14:13;7.40;99.90
4364;DHT22;15337;48.202;12.770;2022-09-29T02:16:45;7.40;99.90
4364;DHT22;15337;48.202;12.770;2022-09-29T02:19:17;7.30;99.90
4364;DHT22;15337;48.202;12.770;2022-09-29T02:21:44;7.30;99.90
4364;DHT22;15337;48.202;12.770;2022-09-29T02:24:12;7.20;99.90
4364;DHT22;15337;48.202;12.770;2022-09-29T02:26:39;7.20;99.90
4364;DHT22;15337;48.202;12.770;2022-09-29T02:29:07;7.10;99.90
4364;DHT22;15337;48.202;12.770;2022-09-29T02:31:35;7.00;99.90
4364;DHT22;15337;48.202;12.770;2022-09-29T02:34:03;7.00;99.90
4364;DHT22;15337;48.202;12.770;2022-09-29T02:36:39;7.00;99.90
4364;DHT22;15337;48.202;12.770;2022-09-29T02:39:16;6.90;99.90
4364;DHT22;15337;48.202;12.770;2022-09-29T02:41:59;6.90;99.90
4364;DHT22;15337;48.202;12.770;2022-09-29T02:44:39;6.80;99.90
4364;DHT22;15337;48.202;12.770;2022-09-29T02:47:18;6.80;99.90
4364;DHT22;15337;48.202;12.770;2022-09-29T02:50:13;6.80;99.90
4364;DHT22;15337;48.202;12.770;2022-09-29T02:52:50;6.70;99.90
4364;DHT22;15337;48.202;12.770;2022-09-29T02:55:24;6.70;99.90
4364;DHT22;15337;48.202;12.770;2022-09-29T02:57:58;6.60;99.90
4364;DHT22;15337;48.202;12.770;2022-09-29T03:00:27;6.60;99.90
4364;DHT22;15337;48.202;12.770;2022-09-29T03:02:54;6.50;99.90
4364;DHT22;15337;48.202;12.770;2022-09-29T03:05:21;6.50;99.90
4364;DHT22;15337;48.202;12.770;2022-09-29T03:07:50;6.40;99.90
4364;DHT22;15337;48.202;12.770;2022-09-29T03:10:17;6.40;99.90
4364;DHT22;15337;48.202;12.770;2022-09-29T03:12:45;6.40;99.90
4364;DHT22;15337;48.202;12.770;2022-09-29T03:15:12;6.40;99.90
4364;DHT22;15337;48.202;12.770;2022-09-29T03:17:39;6.30;99.90
4364;DHT22;15337;48.202;12.770;2022-09-29T03:20:07;6.30;99.90
4364;DHT22;15337;48.202;12.770;2022-09-29T03:22:34;6.20;99.90
4364;DHT22;15337;48.202;12.770;2022-09-29T03:25:03;6.20;99.90
4364;DHT22;15337;48.202;12.770;2022-09-29T03:27:30;6.20;99.90
4364;DHT22;15337;48.202;12.770;2022-09-29T03:29:57;6.20;99.90
4364;DHT22;15337;48.202;12.770;2022-09-29T03:32:24;6.10;99.90
4364;DHT22;15337;48.202;12.770;2022-09-29T03:34:51;6.10;99.90
4364;DHT22;15337;48.202;12.770;2022-09-29T03:37:18;6.00;99.90
4364;DHT22;15337;48.202;12.770;2022-09-29T03:39:45;6.00;99.90
4364;DHT22;15337;48.202;12.770;2022-09-29T03:42:13;6.00;99.90
4364;DHT22;15337;48.202;12.770;2022-09-29T03:44:40;6.00;99.90
4364;DHT22;15337;48.202;12.770;2022-09-29T03:47:07;5.90;99.90
4364;DHT22;15337;48.202;12.770;2022-09-29T03:49:34;5.90;99.90
4364;DHT22;15337;48.202;12.770;2022-09-29T03:52:01;5.90;99.90
4364;DHT22;15337;48.202;12.770;2022-09-29T03:54:28;5.90;99.90
4364;DHT22;15337;48.202;12.770;2022-09-29T03:56:55;5.90;99.90
4364;DHT22;15337;48.202;12.770;2022-09-29T03:59:23;5.80;99.90
4364;DHT22;15337;48.202;12.770;2022-09-29T04:01:50;5.80;99.90
4364;DHT22;15337;48.202;12.770;2022-09-29T04:04:17;5.80;99.90
4364;DHT22;15337;48.202;12.770;2022-09-29T04:06:44;5.70;99.90
4364;DHT22;15337;48.202;12.770;2022-09-29T04:09:11;5.70;99.90
4364;DHT22;15337;48.202;12.770;2022-09-29T04:11:38;5.70;99.90
4364;DHT22;15337;48.202;12.770;2022-09-29T04:14:05;5.60;99.90
4364;DHT22;15337;48.202;12.770;2022-09-29T04:16:33;5.60;99.90
4364;DHT22;15337;48.202;12.770;2022-09-29T04:19:00;5.50;99.90
4364;DHT22;15337;48.202;12.770;2022-09-29T04:21:27;5.50;99.90
4364;DHT22;15337;48.202;12.770;2022-09-29T04:23:54;5.50;99.90
4364;DHT22;15337;48.202;12.770;2022-09-29T04:26:21;5.50;99.90
4364;DHT22;15337;48.202;12.770;2022-09-29T04:28:48;5.50;99.90
4364;DHT22;15337;48.202;12.770;2022-09-29T04:31:15;5.50;99.90
4364;DHT22;15337;48.202;12.770;2022-09-29T04:33:43;5.50;99.90
4364;DHT22;15337;48.202;12.770;2022-09-29T04:36:10;5.50;99.90
4364;DHT22;15337;48.202;12.770;2022-09-29T04:38:37;5.50;99.90
4364;DHT22;15337;48.202;12.770;2022-09-29T04:41:04;5.50;99.90
4364;DHT22;15337;48.202;12.770;2022-09-29T04:43:30;5.40;99.90
4364;DHT22;15337;48.202;12.770;2022-09-29T04:46:02;5.40;99.90
4364;DHT22;15337;48.202;12.770;2022-09-29T04:48:29;5.40;99.90
4364;DHT22;15337;48.202;12.770;2022-09-29T04:50:57;5.40;99.90
4364;DHT22;15337;48.202;12.770;2022-09-29T04:53:24;5.40;99.90
4364;DHT22;15337;48.202;12.770;2022-09-29T04:55:51;5.40;99.90
4364;DHT22;15337;48.202;12.770;2022-09-29T04:58:18;5.40;99.90
4364;DHT22;15337;48.202;12.770;2022-09-29T05:00:45;5.40;99.90
4364;DHT22;15337;48.202;12.770;2022-09-29T05:03:12;5.40;99.90
4364;DHT22;15337;48.202;12.770;2022-09-29T05:05:39;5.40;99.90
4364;DHT22;15337;48.202;12.770;2022-09-29T05:08:07;5.40;99.90
4364;DHT22;15337;48.202;12.770;2022-09-29T05:10:34;5.30;99.90
4364;DHT22;15337;48.202;12.770;2022-09-29T05:13:01;5.30;99.90
4364;DHT22;15337;48.202;12.770;2022-09-29T05:15:28;5.20;99.90
4364;DHT22;15337;48.202;12.770;2022-09-29T05:17:55;5.20;99.90
4364;DHT22;15337;48.202;12.770;2022-09-29T05:20:22;5.20;99.90
4364;DHT22;15337;48.202;12.770;2022-09-29T05:22:48;5.20;99.90
4364;DHT22;15337;48.202;12.770;2022-09-29T05:25:17;5.20;99.90
4364;DHT22;15337;48.202;12.770;2022-09-29T05:27:43;5.30;99.90
4364;DHT22;15337;48.202;12.770;2022-09-29T05:30:11;5.30;99.90
4364;DHT22;15337;48.202;12.770;2022-09-29T05:32:38;5.30;99.90
4364;DHT22;15337;48.202;12.770;2022-09-29T05:35:05;5.30;99.90
4364;DHT22;15337;48.202;12.770;2022-09-29T05:37:32;5.30;99.90
4364;DHT22;15337;48.202;12.770;2022-09-29T05:39:59;5.30;99.90
4364;DHT22;15337;48.202;12.770;2022-09-29T05:42:28;5.30;99.90
4364;DHT22;15337;48.202;12.770;2022-09-29T05:44:55;5.40;99.90
4364;DHT22;15337;48.202;12.770;2022-09-29T05:47:22;5.40;99.90
4364;DHT22;15337;48.202;12.770;2022-09-29T05:49:49;5.40;99.90
4364;DHT22;15337;48.202;12.770;2022-09-29T05:52:16;5.50;99.90
4364;DHT22;15337;48.202;12.770;2022-09-29T05:54:43;5.50;99.90
4364;DHT22;15337;48.202;12.770;2022-09-29T05:57:10;5.50;99.90
4364;DHT22;15337;48.202;12.770;2022-09-29T05:59:38;5.60;99.90
4364;DHT22;15337;48.202;12.770;2022-09-29T06:02:05;5.60;99.90
4364;DHT22;15337;48.202;12.770;2022-09-29T06:04:32;5.60;99.90
4364;DHT22;15337;48.202;12.770;2022-09-29T06:07:00;5.70;99.90
4364;DHT22;15337;48.202;12.770;2022-09-29T06:09:27;5.70;99.90
4364;DHT22;15337;48.202;12.770;2022-09-29T06:11:54;5.70;99.90
4364;DHT22;15337;48.202;12.770;2022-09-29T06:14:21;5.70;99.90
4364;DHT22;15337;48.202;12.770;2022-09-29T06:16:49;5.70;99.90
4364;DHT22;15337;48.202;12.770;2022-09-29T06:19:16;5.80;99.90
4364;DHT22;15337;48.202;12.770;2022-09-29T06:21:43;5.80;99.90
4364;DHT22;15337;48.202;12.770;2022-09-29T06:24:10;5.90;99.90
4364;DHT22;15337;48.202;12.770;2022-09-29T06:26:37;6.00;99.90
4364;DHT22;15337;48.202;12.770;2022-09-29T06:29:04;6.10;99.90
4364;DHT22;15337;48.202;12.770;2022-09-29T06:31:31;6.20;99.90
4364;DHT22;15337;48.202;12.770;2022-09-29T06:34:00;6.30;99.90
4364;DHT22;15337;48.202;12.770;2022-09-29T06:36:30;6.40;99.90
4364;DHT22;15337;48.202;12.770;2022-09-29T06:39:15;6.50;99.90
4364;DHT22;15337;48.202;12.770;2022-09-29T06:41:42;6.50;99.90
4364;DHT22;15337;48.202;12.770;2022-09-29T06:44:13;6.60;99.90
4364;DHT22;15337;48.202;12.770;2022-09-29T06:46:40;6.70;99.90
4364;DHT22;15337;48.202;12.770;2022-09-29T06:49:10;6.70;99.90
4364;DHT22;15337;48.202;12.770;2022-09-29T06:51:37;6.90;99.90
4364;DHT22;15337;48.202;12.770;2022-09-29T06:54:04;7.30;99.90
4364;DHT22;15337;48.202;12.770;2022-09-29T06:56:31;7.50;99.90
4364;DHT22;15337;48.202;12.770;2022-09-29T06:58:58;7.50;99.90
4364;DHT22;15337;48.202;12.770;2022-09-29T07:01:25;7.60;99.90
4364;DHT22;15337;48.202;12.770;2022-09-29T07:03:51;7.60;99.90
4364;DHT22;15337;48.202;12.770;2022-09-29T07:06:20;7.70;99.90
4364;DHT22;15337;48.202;12.770;2022-09-29T07:08:47;7.70;99.90
4364;DHT22;15337;48.202;12.770;2022-09-29T07:11:14;7.70;99.90
4364;DHT22;15337;48.202;12.770;2022-09-29T07:13:41;7.70;99.90
4364;DHT22;15337;48.202;12.770;2022-09-29T07:16:09;7.80;99.90
4364;DHT22;15337;48.202;12.770;2022-09-29T07:18:38;8.00;99.90
4364;DHT22;15337;48.202;12.770;2022-09-29T07:21:07;8.40;99.90
4364;DHT22;15337;48.202;12.770;2022-09-29T07:23:36;8.70;99.90
4364;DHT22;15337;48.202;12.770;2022-09-29T07:26:05;8.90;99.90
4364;DHT22;15337;48.202;12.770;2022-09-29T07:28:32;9.10;99.90
4364;DHT22;15337;48.202;12.770;2022-09-29T07:31:00;9.30;99.90
4364;DHT22;15337;48.202;12.770;2022-09-29T07:33:27;9.40;99.90
4364;DHT22;15337;48.202;12.770;2022-09-29T07:35:54;9.40;99.90
4364;DHT22;15337;48.202;12.770;2022-09-29T07:38:22;9.50;99.90
4364;DHT22;15337;48.202;12.770;2022-09-29T07:40:50;9.50;99.90
4364;DHT22;15337;48.202;12.770;2022-09-29T07:43:17;9.40;99.90
4364;DHT22;15337;48.202;12.770;2022-09-29T07:45:46;9.40;99.90
4364;DHT22;15337;48.202;12.770;2022-09-29T07:48:13;9.30;99.90
4364;DHT22;15337;48.202;12.770;2022-09-29T07:50:40;9.30;99.90
4364;DHT22;15337;48.202;12.770;2022-09-29T07:53:08;9.20;99.90
4364;DHT22;15337;48.202;12.770;2022-09-29T07:55:35;9.20;99.90
4364;DHT22;15337;48.202;12.770;2022-09-29T07:58:04;9.30;99.90
4364;DHT22;15337;48.202;12.770;2022-09-29T08:00:31;9.30;99.90
4364;DHT22;15337;48.202;12.770;2022-09-29T08:02:59;9.40;99.90
4364;DHT22;15337;48.202;12.770;2022-09-29T08:05:28;9.40;99.90
4364;DHT22;15337;48.202;12.770;2022-09-29T08:07:55;9.50;99.90
4364;DHT22;15337;48.202;12.770;2022-09-29T08:10:23;9.50;99.90
4364;DHT22;15337;48.202;12.770;2022-09-29T08:12:52;9.50;99.90
4364;DHT22;15337;48.202;12.770;2022-09-29T08:15:21;9.50;99.90
4364;DHT22;15337;48.202;12.770;2022-09-29T08:17:50;9.60;99.90
4364;DHT22;15337;48.202;12.770;2022-09-29T08:20:17;9.80;99.90
4364;DHT22;15337;48.202;12.770;2022-09-29T08:22:44;9.90;99.90
4364;DHT22;15337;48.202;12.770;2022-09-29T08:25:13;9.80;99.90
4364;DHT22;15337;48.202;12.770;2022-09-29T08:27:40;9.90;99.90
4364;DHT22;15337;48.202;12.770;2022-09-29T08:30:08;9.90;99.90
4364;DHT22;15337;48.202;12.770;2022-09-29T08:32:37;9.90;99.90
4364;DHT22;15337;48.202;12.770;2022-09-29T08:35:04;10.10;99.90
4364;DHT22;15337;48.202;12.770;2022-09-29T08:37:31;10.20;99.90
4364;DHT22;15337;48.202;12.770;2022-09-29T08:39:58;10.30;99.90
4364;DHT22;15337;48.202;12.770;2022-09-29T08:42:31;10.40;99.90
4364;DHT22;15337;48.202;12.770;2022-09-29T08:45:07;10.70;99.90
4364;DHT22;15337;48.202;12.770;2022-09-29T08:47:41;10.90;99.90
4364;DHT22;15337;48.202;12.770;2022-09-29T08:50:15;11.00;99.90
4364;DHT22;15337;48.202;12.770;2022-09-29T08:52:43;11.30;99.90
4364;DHT22;15337;48.202;12.770;2022-09-29T08:55:24;11.50;99.90
4364;DHT22;15337;48.202;12.770;2022-09-29T08:57:56;11.60;99.90
4364;DHT22;15337;48.202;12.770;2022-09-29T09:00:30;11.60;99.90
4364;DHT22;15337;48.202;12.770;2022-09-29T09:03:11;11.80;99.90
4364;DHT22;15337;48.202;12.770;2022-09-29T09:05:55;11.90;99.90
4364;DHT22;15337;48.202;12.770;2022-09-29T09:08:37;12.00;99.90
4364;DHT22;15337;48.202;12.770;2022-09-29T09:11:19;12.10;99.90
4364;DHT22;15337;48.202;12.770;2022-09-29T09:13:59;12.30;99.90
4364;DHT22;15337;48.202;12.770;2022-09-29T09:16:39;12.20;99.90
4364;DHT22;15337;48.202;12.770;2022-09-29T09:19:34;12.20;99.90
4364;DHT22;15337;48.202;12.770;2022-09-29T09:22:13;12.30;99.90
4364;DHT22;15337;48.202;12.770;2022-09-29T09:24:58;12.60;99.90
4364;DHT22;15337;48.202;12.770;2022-09-29T09:27:27;12.70;99.90
4364;DHT22;15337;48.202;12.770;2022-09-29T09:30:02;12.80;99.90
4364;DHT22;15337;48.202;12.770;2022-09-29T09:32:34;12.90;99.90
4364;DHT22;15337;48.202;12.770;2022-09-29T09:35:15;13.00;99.90
4364;DHT22;15337;48.202;12.770;2022-09-29T09:37:45;13.00;99.90
4364;DHT22;15337;48.202;12.770;2022-09-29T09:40:14;13.10;99.90
4364;DHT22;15337;48.202;12.770;2022-09-29T09:42:52;13.20;99.90
4364;DHT22;15337;48.202;12.770;2022-09-29T09:45:28;13.30;99.90
4364;DHT22;15337;48.202;12.770;2022-09-29T09:48:01;13.50;99.90
4364;DHT22;15337;48.202;12.770;2022-09-29T09:50:32;13.60;99.10
4364;DHT22;15337;48.202;12.770;2022-09-29T09:53:03;13.60;97.50
4364;DHT22;15337;48.202;12.770;2022-09-29T09:55:30;13.60;97.70
4364;DHT22;15337;48.202;12.770;2022-09-29T09:58:29;13.70;96.90
4364;DHT22;15337;48.202;12.770;2022-09-29T10:01:01;13.70;96.90
4364;DHT22;15337;48.202;12.770;2022-09-29T10:03:29;13.90;99.80
4364;DHT22;15337;48.202;12.770;2022-09-29T10:05:58;13.90;97.00
4364;DHT22;15337;48.202;12.770;2022-09-29T10:08:27;13.80;92.80
4364;DHT22;15337;48.202;12.770;2022-09-29T10:10:56;13.80;97.60
4364;DHT22;15337;48.202;12.770;2022-09-29T10:13:25;13.80;98.30
4364;DHT22;15337;48.202;12.770;2022-09-29T10:15:55;13.70;95.10
4364;DHT22;15337;48.202;12.770;2022-09-29T10:18:28;13.60;95.00
4364;DHT22;15337;48.202;12.770;2022-09-29T10:20:57;13.60;97.20
4364;DHT22;15337;48.202;12.770;2022-09-29T10:23:29;13.70;98.50
4364;DHT22;15337;48.202;12.770;2022-09-29T10:25:59;13.80;98.30
4364;DHT22;15337;48.202;12.770;2022-09-29T10:28:35;13.80;97.50
4364;DHT22;15337;48.202;12.770;2022-09-29T10:31:15;13.80;97.20
4364;DHT22;15337;48.202;12.770;2022-09-29T10:33:47;13.90;97.00
4364;DHT22;15337;48.202;12.770;2022-09-29T10:36:17;13.80;97.90
4364;DHT22;15337;48.202;12.770;2022-09-29T10:38:47;13.90;97.60
4364;DHT22;15337;48.202;12.770;2022-09-29T10:41:15;13.70;97.80
4364;DHT22;15337;48.202;12.770;2022-09-29T10:43:45;13.70;98.50
4364;DHT22;15337;48.202;12.770;2022-09-29T10:46:35;13.60;98.80
4364;DHT22;15337;48.202;12.770;2022-09-29T10:49:12;13.70;99.90
4364;DHT22;15337;48.202;12.770;2022-09-29T10:51:46;13.80;99.90
4364;DHT22;15337;48.202;12.770;2022-09-29T10:54:15;13.90;99.90
4364;DHT22;15337;48.202;12.770;2022-09-29T10:56:46;14.00;99.90
4364;DHT22;15337;48.202;12.770;2022-09-29T10:59:15;14.00;99.90
4364;DHT22;15337;48.202;12.770;2022-09-29T11:01:46;14.00;99.50
4364;DHT22;15337;48.202;12.770;2022-09-29T11:04:18;14.10;99.90
4364;DHT22;15337;48.202;12.770;2022-09-29T11:06:49;14.30;99.90
4364;DHT22;15337;48.202;12.770;2022-09-29T11:09:27;14.30;99.90
4364;DHT22;15337;48.202;12.770;2022-09-29T11:11:56;14.30;98.90
4364;DHT22;15337;48.202;12.770;2022-09-29T11:14:24;14.10;98.90
4364;DHT22;15337;48.202;12.770;2022-09-29T11:16:53;14.20;99.90
4364;DHT22;15337;48.202;12.770;2022-09-29T11:19:20;14.20;98.50
4364;DHT22;15337;48.202;12.770;2022-09-29T11:25:11;14.10;95.90
4364;DHT22;15337;48.202;12.770;2022-09-29T11:27:49;14.00;99.50
4364;DHT22;15337;48.202;12.770;2022-09-29T11:30:22;14.00;98.30
4364;DHT22;15337;48.202;12.770;2022-09-29T11:33:05;14.00;99.90
4364;DHT22;15337;48.202;12.770;2022-09-29T11:35:42;14.10;99.90
4364;DHT22;15337;48.202;12.770;2022-09-29T11:38:19;14.20;99.90
4364;DHT22;15337;48.202;12.770;2022-09-29T11:41:01;14.30;99.30
4364;DHT22;15337;48.202;12.770;2022-09-29T11:43:44;14.30;99.00
4364;DHT22;15337;48.202;12.770;2022-09-29T11:46:28;14.30;98.20
4364;DHT22;15337;48.202;12.770;2022-09-29T11:49:39;14.40;99.90
4364;DHT22;15337;48.202;12.770;2022-09-29T11:52:48;14.40;97.70
4364;DHT22;15337;48.202;12.770;2022-09-29T11:55:29;14.30;99.90
4364;DHT22;15337;48.202;12.770;2022-09-29T11:58:13;14.40;99.10
4364;DHT22;15337;48.202;12.770;2022-09-29T12:00:57;14.30;96.70
4364;DHT22;15337;48.202;12.770;2022-09-29T12:03:35;14.40;99.20
4364;DHT22;15337;48.202;12.770;2022-09-29T12:06:29;14.50;97.80
4364;DHT22;15337;48.202;12.770;2022-09-29T12:09:05;14.60;96.50
4364;DHT22;15337;48.202;12.770;2022-09-29T12:11:40;14.50;96.60
4364;DHT22;15337;48.202;12.770;2022-09-29T12:14:15;14.50;99.00
4364;DHT22;15337;48.202;12.770;2022-09-29T12:16:50;14.60;97.00
4364;DHT22;15337;48.202;12.770;2022-09-29T12:19:22;14.60;96.80
4364;DHT22;15337;48.202;12.770;2022-09-29T12:21:51;14.60;94.80
4364;DHT22;15337;48.202;12.770;2022-09-29T12:24:31;14.60;96.40
4364;DHT22;15337;48.202;12.770;2022-09-29T12:27:03;14.40;93.60
4364;DHT22;15337;48.202;12.770;2022-09-29T12:29:33;14.40;95.00
4364;DHT22;15337;48.202;12.770;2022-09-29T12:32:04;14.40;95.60
4364;DHT22;15337;48.202;12.770;2022-09-29T12:34:40;14.30;92.10
4364;DHT22;15337;48.202;12.770;2022-09-29T12:37:12;14.30;93.20
4364;DHT22;15337;48.202;12.770;2022-09-29T12:39:47;14.30;94.00
4364;DHT22;15337;48.202;12.770;2022-09-29T12:42:27;14.40;93.70
4364;DHT22;15337;48.202;12.770;2022-09-29T12:45:00;14.40;94.80
4364;DHT22;15337;48.202;12.770;2022-09-29T12:47:42;14.30;92.40
4364;DHT22;15337;48.202;12.770;2022-09-29T12:50:16;14.30;92.00
4364;DHT22;15337;48.202;12.770;2022-09-29T12:52:47;14.30;93.40
4364;DHT22;15337;48.202;12.770;2022-09-29T12:55:21;14.30;93.80
4364;DHT22;15337;48.202;12.770;2022-09-29T12:57:52;14.30;92.20
4364;DHT22;15337;48.202;12.770;2022-09-29T13:00:21;14.20;94.80
4364;DHT22;15337;48.202;12.770;2022-09-29T13:06:26;14.00;92.90
4364;DHT22;15337;48.202;12.770;2022-09-29T13:12:08;14.10;95.90
4364;DHT22;15337;48.202;12.770;2022-09-29T13:17:51;14.20;96.40
4364;DHT22;15337;48.202;12.770;2022-09-29T13:20:42;14.20;96.10
4364;DHT22;15337;48.202;12.770;2022-09-29T13:26:37;14.20;94.90
4364;DHT22;15337;48.202;12.770;2022-09-29T13:29:10;14.20;96.00
4364;DHT22;15337;48.202;12.770;2022-09-29T13:31:40;14.30;97.10
4364;DHT22;15337;48.202;12.770;2022-09-29T13:34:18;14.40;96.70
4364;DHT22;15337;48.202;12.770;2022-09-29T13:36:46;14.40;97.40
4364;DHT22;15337;48.202;12.770;2022-09-29T13:39:20;14.40;96.20
4364;DHT22;15337;48.202;12.770;2022-09-29T13:41:48;14.50;96.50
4364;DHT22;15337;48.202;12.770;2022-09-29T13:44:24;14.50;96.40
4364;DHT22;15337;48.202;12.770;2022-09-29T13:46:54;14.60;97.50
4364;DHT22;15337;48.202;12.770;2022-09-29T13:49:27;14.60;97.20
4364;DHT22;15337;48.202;12.770;2022-09-29T13:51:55;14.60;96.30
4364;DHT22;15337;48.202;12.770;2022-09-29T13:54:34;14.60;95.90
4364;DHT22;15337;48.202;12.770;2022-09-29T13:57:25;14.50;96.70
4364;DHT22;15337;48.202;12.770;2022-09-29T14:00:16;14.60;96.60
4364;DHT22;15337;48.202;12.770;2022-09-29T14:02:48;14.60;95.80
4364;DHT22;15337;48.202;12.770;2022-09-29T14:05:46;14.60;96.80
4364;DHT22;15337;48.202;12.770;2022-09-29T14:08:29;14.60;97.60
4364;DHT22;15337;48.202;12.770;2022-09-29T14:11:05;14.60;98.30
4364;DHT22;15337;48.202;12.770;2022-09-29T14:13:40;14.60;97.00
4364;DHT22;15337;48.202;12.770;2022-09-29T14:16:30;14.60;97.00
4364;DHT22;15337;48.202;12.770;2022-09-29T14:19:03;14.50;96.40
4364;DHT22;15337;48.202;12.770;2022-09-29T14:21:48;14.50;98.20
4364;DHT22;15337;48.202;12.770;2022-09-29T14:24:44;14.50;97.30
4364;DHT22;15337;48.202;12.770;2022-09-29T14:27:33;14.50;96.80
4364;DHT22;15337;48.202;12.770;2022-09-29T14:30:12;14.60;98.70
4364;DHT22;15337;48.202;12.770;2022-09-29T14:32:44;14.50;98.40
4364;DHT22;15337;48.202;12.770;2022-09-29T14:35:22;14.50;98.90
4364;DHT22;15337;48.202;12.770;2022-09-29T14:37:57;14.40;98.60
4364;DHT22;15337;48.202;12.770;2022-09-29T14:40:25;14.40;99.70
4364;DHT22;15337;48.202;12.770;2022-09-29T14:43:12;14.40;99.10
4364;DHT22;15337;48.202;12.770;2022-09-29T14:46:07;14.40;98.30
4364;DHT22;15337;48.202;12.770;2022-09-29T14:49:14;14.30;98.80
4364;DHT22;15337;48.202;12.770;2022-09-29T14:52:14;14.20;98.10
4364;DHT22;15337;48.202;12.770;2022-09-29T14:54:54;14.10;98.40
4364;DHT22;15337;48.202;12.770;2022-09-29T14:57:45;14.20;99.60
4364;DHT22;15337;48.202;12.770;2022-09-29T15:00:18;14.20;99.90
4364;DHT22;15337;48.202;12.770;2022-09-29T15:02:48;14.10;99.80
4364;DHT22;15337;48.202;12.770;2022-09-29T15:05:25;14.10;99.90
4364;DHT22;15337;48.202;12.770;2022-09-29T15:07:54;14.00;99.90
4364;DHT22;15337;48.202;12.770;2022-09-29T15:10:24;14.00;99.90
4364;DHT22;15337;48.202;12.770;2022-09-29T15:12:52;14.00;99.90
4364;DHT22;15337;48.202;12.770;2022-09-29T15:15:34;14.00;99.90
4364;DHT22;15337;48.202;12.770;2022-09-29T15:18:18;14.00;99.90
4364;DHT22;15337;48.202;12.770;2022-09-29T15:20:54;14.00;99.90
4364;DHT22;15337;48.202;12.770;2022-09-29T15:23:43;13.80;99.90
4364;DHT22;15337;48.202;12.770;2022-09-29T15:26:14;13.70;99.90
4364;DHT22;15337;48.202;12.770;2022-09-29T15:28:41;13.60;99.90
4364;DHT22;15337;48.202;12.770;2022-09-29T15:31:10;13.60;99.90
4364;DHT22;15337;48.202;12.770;2022-09-29T15:33:39;13.60;99.90
4364;DHT22;15337;48.202;12.770;2022-09-29T15:36:17;13.50;99.90
4364;DHT22;15337;48.202;12.770;2022-09-29T15:38:50;13.40;99.90
4364;DHT22;15337;48.202;12.770;2022-09-29T15:41:20;13.40;99.90
4364;DHT22;15337;48.202;12.770;2022-09-29T15:43:54;13.30;99.90
4364;DHT22;15337;48.202;12.770;2022-09-29T15:46:23;13.30;99.90
4364;DHT22;15337;48.202;12.770;2022-09-29T15:49:14;13.30;99.90
4364;DHT22;15337;48.202;12.770;2022-09-29T15:51:43;13.20;99.90
4364;DHT22;15337;48.202;12.770;2022-09-29T15:54:13;13.20;99.90
4364;DHT22;15337;48.202;12.770;2022-09-29T15:56:40;13.20;99.90
4364;DHT22;15337;48.202;12.770;2022-09-29T15:59:43;13.20;99.90
4364;DHT22;15337;48.202;12.770;2022-09-29T16:02:23;13.10;99.90
4364;DHT22;15337;48.202;12.770;2022-09-29T16:04:54;13.00;99.90
4364;DHT22;15337;48.202;12.770;2022-09-29T16:07:24;13.00;99.90
4364;DHT22;15337;48.202;12.770;2022-09-29T16:10:00;12.90;99.90
4364;DHT22;15337;48.202;12.770;2022-09-29T16:12:30;12.90;99.90
4364;DHT22;15337;48.202;12.770;2022-09-29T16:15:00;12.80;99.90
4364;DHT22;15337;48.202;12.770;2022-09-29T16:17:27;12.80;99.90
4364;DHT22;15337;48.202;12.770;2022-09-29T16:19:54;12.70;99.90
4364;DHT22;15337;48.202;12.770;2022-09-29T16:22:23;12.80;99.90
4364;DHT22;15337;48.202;12.770;2022-09-29T16:24:55;12.70;99.90
4364;DHT22;15337;48.202;12.770;2022-09-29T16:27:44;12.70;99.90
4364;DHT22;15337;48.202;12.770;2022-09-29T16:30:25;12.60;99.90
4364;DHT22;15337;48.202;12.770;2022-09-29T16:33:01;12.60;99.90
4364;DHT22;15337;48.202;12.770;2022-09-29T16:35:54;12.60;99.90